Time;durP1;ratioP1;P1;durP2;ratioP2;P2;SDS_P1;SDS_P2;PMS_P1;PMS_P2;Temp;Humidity;BMP_temperature;BMP_pressure;BME280_temperature;BME280_humidity;BME280_pressure;Samples;Min_cycle;Max_cycle;Signal;HPM_P1;HPM_P2
2022/05/12 00:01:59;;;;;;;29.48;20.10;;;16.80;74.30;;;;;;4975364;28;20439;-15
2022/05/12 00:04:26;;;;;;;31.13;19.85;;;16.80;74.50;;;;;;4975142;28;20022;-15
2022/05/12 00:06:52;;;;;;;35.00;22.05;;;16.70;75.40;;;;;;4975507;28;20058;-16
2022/05/12 00:09:18;;;;;;;34.95;24.80;;;16.70;75.10;;;;;;4975161;28;20490;-15
2022/05/12 00:11:44;;;;;;;36.13;25.17;;;16.70;75.50;;;;;;4975285;28;20026;-16
2022/05/12 00:14:11;;;;;;;28.20;19.65;;;16.70;76.00;;;;;;4975283;28;20061;-16
2022/05/12 00:16:37;;;;;;;29.35;21.35;;;16.70;76.40;;;;;;4974872;28;20069;-15
2022/05/12 00:19:04;;;;;;;33.67;22.25;;;16.60;76.90;;;;;;4975446;28;20038;-13
2022/05/12 00:21:30;;;;;;;27.83;19.13;;;16.60;76.60;;;;;;4974958;28;20026;-14
2022/05/12 00:23:58;;;;;;;32.20;20.98;;;16.60;76.90;;;;;;4975074;28;20031;-16
2022/05/12 00:26:33;;;;;;;28.10;19.98;;;16.50;77.10;;;;;;4974673;28;20406;-15
2022/05/12 00:29:05;;;;;;;30.30;20.15;;;16.50;76.20;;;;;;4973169;28;20473;-14
2022/05/12 00:31:32;;;;;;;39.17;24.55;;;16.50;76.50;;;;;;4974938;28;20387;-13
2022/05/12 00:33:59;;;;;;;30.88;21.33;;;16.40;78.60;;;;;;4974781;28;20043;-15
2022/05/12 00:36:24;;;;;;;28.40;20.95;;;16.30;78.40;;;;;;4974374;28;20047;-16
2022/05/12 00:38:50;;;;;;;34.85;24.63;;;16.30;76.90;;;;;;4975082;28;20118;-13
2022/05/12 00:41:17;;;;;;;28.38;20.05;;;16.30;77.90;;;;;;4974859;28;20101;-13
2022/05/12 00:43:50;;;;;;;27.83;18.83;;;16.30;77.30;;;;;;4975036;28;20033;-14
2022/05/12 00:46:24;;;;;;;27.45;18.30;;;16.20;76.70;;;;;;4974807;28;20027;-17
2022/05/12 00:48:51;;;;;;;22.38;16.70;;;16.20;76.60;;;;;;4975183;28;20085;-13
2022/05/12 00:51:32;;;;;;;27.08;19.05;;;16.20;76.50;;;;;;4974586;28;20423;-15
2022/05/12 00:54:02;;;;;;;27.67;19.27;;;16.20;76.50;;;;;;4974836;28;20434;-15
2022/05/12 00:56:29;;;;;;;27.58;19.48;;;16.20;76.50;;;;;;4974434;28;20114;-15
2022/05/12 00:59:01;;;;;;;27.33;17.95;;;16.20;76.10;;;;;;4974464;28;20494;-14
2022/05/12 01:01:28;;;;;;;25.23;17.92;;;16.20;75.70;;;;;;4973306;28;20430;-15
2022/05/12 01:03:58;;;;;;;28.35;18.38;;;16.20;75.60;;;;;;4974725;28;20027;-15
2022/05/12 01:06:25;;;;;;;26.75;18.77;;;16.20;75.80;;;;;;4974486;28;20030;-15
2022/05/12 01:08:51;;;;;;;22.80;16.92;;;16.20;75.80;;;;;;4974412;28;20059;-17
2022/05/12 01:11:20;;;;;;;28.25;17.88;;;16.10;75.80;;;;;;4974671;28;20062;-14
2022/05/12 01:13:56;;;;;;;24.08;17.10;;;16.10;75.90;;;;;;4974193;28;20067;-16
2022/05/12 01:16:42;;;;;;;28.02;18.30;;;16.00;75.80;;;;;;4974168;28;20026;-14
2022/05/12 01:19:12;;;;;;;27.50;17.35;;;16.00;76.10;;;;;;4974787;28;20105;-14
2022/05/12 01:21:39;;;;;;;19.38;15.15;;;15.90;76.40;;;;;;4974176;28;20031;-15
2022/05/12 01:24:05;;;;;;;25.10;17.05;;;15.90;75.70;;;;;;4974569;28;20026;-15
2022/05/12 01:26:33;;;;;;;25.73;17.10;;;15.90;75.60;;;;;;4974081;28;20109;-17
2022/05/12 01:29:00;;;;;;;30.02;21.60;;;15.90;75.60;;;;;;4974519;28;20049;-16
2022/05/12 01:31:26;;;;;;;28.98;20.90;;;15.90;76.10;;;;;;4972949;28;20019;-16
2022/05/12 01:33:52;;;;;;;24.23;16.75;;;15.80;76.40;;;;;;4974294;28;20030;-15
2022/05/12 01:36:21;;;;;;;28.48;19.20;;;15.80;75.90;;;;;;4973604;28;20047;-15
2022/05/12 01:38:48;;;;;;;27.33;18.33;;;15.80;76.00;;;;;;4972953;28;20536;-15
2022/05/12 01:41:15;;;;;;;33.58;22.55;;;15.80;76.10;;;;;;4977135;28;20027;-16
2022/05/12 01:43:41;;;;;;;26.33;18.15;;;15.80;76.20;;;;;;4977867;28;20033;-14
2022/05/12 01:46:08;;;;;;;29.10;19.77;;;15.70;75.90;;;;;;4977965;28;20026;-16
2022/05/12 01:48:34;;;;;;;30.52;20.65;;;15.70;76.00;;;;;;4977963;28;20035;-16
2022/05/12 01:51:00;;;;;;;42.42;27.00;;;15.70;76.20;;;;;;4977958;28;20041;-15
2022/05/12 01:53:26;;;;;;;32.78;22.45;;;15.70;76.50;;;;;;4977701;28;20519;-14
2022/05/12 01:55:52;;;;;;;28.88;19.70;;;15.80;76.30;;;;;;4976490;28;20442;-14
2022/05/12 01:58:20;;;;;;;47.85;27.85;;;15.80;76.70;;;;;;4977407;28;20054;-14
2022/05/12 02:00:47;;;;;;;31.70;20.70;;;15.70;76.20;;;;;;4977642;28;20026;-16
2022/05/12 02:03:13;;;;;;;30.55;19.85;;;15.70;76.30;;;;;;4977855;28;20097;-15
2022/05/12 02:05:40;;;;;;;27.27;19.02;;;15.80;76.00;;;;;;4977444;28;20034;-15
2022/05/12 02:08:08;;;;;;;30.05;19.77;;;15.70;75.80;;;;;;4977706;28;20109;-14
2022/05/12 02:10:38;;;;;;;31.90;21.88;;;15.70;75.90;;;;;;4977542;28;20055;-15
2022/05/12 02:13:09;;;;;;;29.73;20.70;;;15.70;75.80;;;;;;4976153;28;20031;-15
2022/05/12 02:15:37;;;;;;;32.50;20.50;;;15.70;75.90;;;;;;4977454;28;20109;-14
2022/05/12 02:18:04;;;;;;;26.20;17.77;;;15.60;76.10;;;;;;4977826;28;20097;-15
2022/05/12 02:20:31;;;;;;;27.50;17.80;;;15.50;76.00;;;;;;4977092;28;20023;-16
2022/05/12 02:22:57;;;;;;;31.42;20.45;;;15.50;76.30;;;;;;4977572;28;20393;-14
2022/05/12 02:25:23;;;;;;;29.85;20.13;;;15.50;76.10;;;;;;4977169;28;20094;-15
2022/05/12 02:27:50;;;;;;;23.65;15.98;;;15.50;76.20;;;;;;4977166;28;20027;-15
2022/05/12 02:30:22;;;;;;;25.80;17.95;;;15.50;76.00;;;;;;4976918;28;20545;-16
2022/05/12 02:32:48;;;;;;;31.67;21.55;;;15.40;76.10;;;;;;4977141;28;20506;-15
2022/05/12 02:35:15;;;;;;;28.67;20.42;;;15.40;76.50;;;;;;4976790;28;20051;-15
2022/05/12 02:37:42;;;;;;;35.17;20.17;;;15.30;76.40;;;;;;4976910;28;20030;-17
2022/05/12 02:40:10;;;;;;;35.95;22.25;;;15.20;76.50;;;;;;4976992;28;20501;-15
2022/05/12 02:42:35;;;;;;;24.55;18.42;;;15.20;76.80;;;;;;4975509;28;20027;-15
2022/05/12 02:45:01;;;;;;;28.73;19.98;;;15.10;77.00;;;;;;4976894;28;20045;-14
2022/05/12 02:47:27;;;;;;;31.70;21.25;;;15.00;76.90;;;;;;4976877;28;20034;-14
2022/05/12 02:49:53;;;;;;;31.70;20.80;;;15.00;77.00;;;;;;4977026;28;20026;-16
2022/05/12 02:52:19;;;;;;;25.70;17.27;;;14.90;77.50;;;;;;4976256;28;20054;-15
2022/05/12 02:54:45;;;;;;;30.83;21.15;;;14.90;77.50;;;;;;4976596;28;20504;-15
2022/05/12 02:57:11;;;;;;;33.55;22.25;;;14.90;77.60;;;;;;4977032;28;20037;-16
2022/05/12 02:59:37;;;;;;;36.95;23.25;;;14.80;77.80;;;;;;4976920;28;20093;-15
2022/05/12 03:02:03;;;;;;;34.03;21.10;;;14.70;77.70;;;;;;4976692;28;20122;-15
2022/05/12 03:04:29;;;;;;;30.13;20.25;;;14.60;78.20;;;;;;4976305;28;20022;-14
2022/05/12 03:06:55;;;;;;;31.25;20.98;;;14.60;78.10;;;;;;4976698;28;20033;-15
2022/05/12 03:09:21;;;;;;;28.23;18.42;;;14.50;78.20;;;;;;4976499;28;20364;-15
2022/05/12 03:11:48;;;;;;;28.45;19.17;;;14.50;78.40;;;;;;4976283;28;20033;-14
2022/05/12 03:14:14;;;;;;;31.60;19.35;;;14.50;78.50;;;;;;4976119;28;20035;-16
2022/05/12 03:16:40;;;;;;;31.05;18.23;;;14.50;78.50;;;;;;4976257;28;20078;-14
2022/05/12 03:19:07;;;;;;;24.50;16.13;;;14.50;78.40;;;;;;4976539;28;20093;-15
2022/05/12 03:21:32;;;;;;;24.20;16.90;;;14.50;78.40;;;;;;4976115;28;20453;-15
2022/05/12 03:23:58;;;;;;;25.80;16.58;;;14.50;78.40;;;;;;4976190;28;20110;-14
2022/05/12 03:26:24;;;;;;;21.58;15.50;;;14.50;78.50;;;;;;4975882;28;20030;-16
2022/05/12 03:28:51;;;;;;;23.15;16.00;;;14.50;78.40;;;;;;4974900;28;20038;-14
2022/05/12 03:31:18;;;;;;;26.17;17.65;;;14.40;78.30;;;;;;4975972;28;20038;-15
2022/05/12 03:33:46;;;;;;;30.13;20.35;;;14.40;78.60;;;;;;4975904;28;20478;-14
2022/05/12 03:36:12;;;;;;;25.80;18.45;;;14.40;78.80;;;;;;4975839;28;20051;-14
2022/05/12 03:38:39;;;;;;;24.85;16.27;;;14.40;78.90;;;;;;4976041;28;20030;-14
2022/05/12 03:41:06;;;;;;;21.75;15.65;;;14.40;78.70;;;;;;4976106;28;20031;-15
2022/05/12 03:46:17;;;;;;;21.88;16.48;;;14.40;78.40;;;;;;4975978;28;20058;-15
2022/05/12 03:48:43;;;;;;;24.42;17.77;;;14.40;78.40;;;;;;4974503;28;20034;-15
2022/05/12 03:51:10;;;;;;;25.70;18.10;;;14.30;78.70;;;;;;4975957;28;20023;-14
2022/05/12 03:53:36;;;;;;;30.70;19.65;;;14.30;79.00;;;;;;4975527;28;20123;-14
2022/05/12 03:56:04;;;;;;;35.95;21.85;;;14.20;78.80;;;;;;4975523;28;20038;-17
2022/05/12 03:58:31;;;;;;;28.80;18.75;;;14.20;78.70;;;;;;4975252;28;20114;-16
2022/05/12 04:00:59;;;;;;;27.38;17.38;;;14.20;78.90;;;;;;4975472;28;20042;-16
2022/05/12 04:03:25;;;;;;;29.15;19.60;;;14.10;78.90;;;;;;4974635;28;20101;-15
2022/05/12 04:05:51;;;;;;;34.67;23.08;;;14.10;79.20;;;;;;4974046;28;20118;-16
2022/05/12 04:08:17;;;;;;;35.10;22.45;;;14.10;79.10;;;;;;4975391;28;20030;-16
2022/05/12 04:10:43;;;;;;;31.10;21.90;;;14.10;79.30;;;;;;4975315;28;20063;-15
2022/05/12 04:13:09;;;;;;;30.08;19.77;;;14.10;79.60;;;;;;4975391;28;20106;-16
2022/05/12 04:15:35;;;;;;;39.63;25.08;;;14.10;79.60;;;;;;4975475;28;20029;-16
2022/05/12 04:18:04;;;;;;;30.55;20.67;;;14.10;79.80;;;;;;4973887;28;20031;-16
2022/05/12 04:20:32;;;;;;;25.58;18.13;;;14.10;79.90;;;;;;4975210;28;20023;-15
2022/05/12 04:22:58;;;;;;;29.08;18.85;;;14.10;79.70;;;;;;4975538;28;20035;-16
2022/05/12 04:25:25;;;;;;;29.27;18.52;;;14.10;79.60;;;;;;4975002;28;20077;-15
2022/05/12 04:27:52;;;;;;;27.23;16.85;;;14.20;79.80;;;;;;4975153;28;20031;-16
2022/05/12 04:30:20;;;;;;;29.60;19.40;;;14.30;80.00;;;;;;4975166;28;20031;-17
2022/05/12 04:32:46;;;;;;;25.65;18.30;;;14.30;79.90;;;;;;4974925;28;20031;-16
2022/05/12 04:35:14;;;;;;;36.28;19.85;;;14.40;79.70;;;;;;4974581;28;20113;-16
2022/05/12 04:37:53;;;;;;;32.83;19.65;;;14.40;79.40;;;;;;4974759;28;20478;-16
2022/05/12 04:40:19;;;;;;;33.08;20.73;;;14.50;79.20;;;;;;4974612;28;20027;-17
2022/05/12 04:42:47;;;;;;;36.33;22.15;;;14.60;79.40;;;;;;4975470;28;20023;-16
2022/05/12 04:45:14;;;;;;;31.75;19.00;;;14.70;79.10;;;;;;4975006;28;20261;-16
2022/05/12 04:47:41;;;;;;;26.33;17.10;;;14.80;78.90;;;;;;4975007;28;20030;-16
2022/05/12 04:50:10;;;;;;;29.33;20.83;;;14.90;78.90;;;;;;4974942;28;20069;-16
2022/05/12 04:52:36;;;;;;;25.83;17.08;;;15.00;78.50;;;;;;4974609;28;20034;-15
2022/05/12 04:55:03;;;;;;;29.50;18.55;;;15.10;78.50;;;;;;4974484;28;20029;-17
2022/05/12 04:57:39;;;;;;;24.08;16.73;;;15.20;78.70;;;;;;4974841;28;20030;-16
2022/05/12 05:00:10;;;;;;;24.08;17.17;;;15.40;78.00;;;;;;4974889;28;20027;-16
2022/05/12 05:02:36;;;;;;;26.30;17.23;;;15.40;78.00;;;;;;4974589;28;20057;-18
2022/05/12 05:05:04;;;;;;;24.95;17.88;;;15.60;77.90;;;;;;4975131;28;20475;-16
2022/05/12 05:07:30;;;;;;;24.58;17.05;;;15.80;77.30;;;;;;4974329;28;20033;-17
2022/05/12 05:09:56;;;;;;;26.00;17.95;;;15.90;77.20;;;;;;4974538;28;20125;-17
2022/05/12 05:12:22;;;;;;;36.80;24.17;;;16.00;77.40;;;;;;4974299;28;20041;-16
2022/05/12 05:14:48;;;;;;;43.13;25.77;;;16.20;76.90;;;;;;4974342;28;20027;-17
2022/05/12 05:17:14;;;;;;;36.72;22.42;;;16.30;76.80;;;;;;4974251;28;20038;-16
2022/05/12 05:19:41;;;;;;;39.67;26.13;;;16.40;76.60;;;;;;4973455;28;20033;-15
2022/05/12 05:22:08;;;;;;;31.58;20.98;;;16.50;76.80;;;;;;4974490;28;20030;-16
2022/05/12 05:24:34;;;;;;;41.90;25.45;;;16.70;76.80;;;;;;4974103;28;20126;-16
2022/05/12 05:27:01;;;;;;;44.15;26.45;;;16.80;75.80;;;;;;4974769;28;20483;-16
2022/05/12 05:29:27;;;;;;;27.60;19.40;;;16.90;75.70;;;;;;4973101;28;20479;-16
2022/05/12 05:31:53;;;;;;;37.53;23.58;;;17.00;75.50;;;;;;4974421;28;20038;-16
2022/05/12 05:34:19;;;;;;;32.28;22.20;;;17.20;76.40;;;;;;4974029;28;20391;-15
2022/05/12 05:36:45;;;;;;;37.45;24.60;;;17.30;75.50;;;;;;4973957;28;20410;-16
2022/05/12 05:39:20;;;;;;;37.90;24.65;;;17.40;75.10;;;;;;4974698;28;20399;-16
2022/05/12 05:41:47;;;;;;;32.00;23.10;;;17.60;75.10;;;;;;4974071;28;20579;-16
2022/05/12 05:44:13;;;;;;;37.88;24.65;;;17.60;75.10;;;;;;4974052;28;20034;-16
2022/05/12 05:46:39;;;;;;;34.97;23.20;;;17.90;76.10;;;;;;4974365;28;20027;-17
2022/05/12 05:49:05;;;;;;;35.47;23.15;;;18.00;75.30;;;;;;4974104;28;20027;-16
2022/05/12 05:54:16;;;;;;;35.83;23.85;;;18.40;75.00;;;;;;4973817;28;20093;-17
2022/05/12 05:56:43;;;;;;;43.70;26.27;;;18.60;74.40;;;;;;4974044;28;20022;-16
2022/05/12 05:59:09;;;;;;;40.78;25.13;;;18.80;75.20;;;;;;4974060;28;20030;-15
2022/05/12 06:01:35;;;;;;;49.05;26.52;;;19.00;74.30;;;;;;4974279;28;20487;-15
2022/05/12 06:04:02;;;;;;;38.95;24.80;;;19.10;74.60;;;;;;4974142;28;20035;-16
2022/05/12 06:06:28;;;;;;;41.10;25.23;;;19.30;72.80;;;;;;4973555;28;20030;-15
2022/05/12 06:08:54;;;;;;;33.28;21.98;;;19.50;72.50;;;;;;4974125;28;20035;-15
2022/05/12 06:11:20;;;;;;;28.60;20.77;;;19.60;72.40;;;;;;4974147;28;20050;-15
2022/05/12 06:13:48;;;;;;;32.85;21.55;;;19.90;72.10;;;;;;4974023;28;20035;-16
2022/05/12 06:16:14;;;;;;;35.83;23.02;;;20.00;72.00;;;;;;4973705;28;20038;-17
2022/05/12 06:18:41;;;;;;;28.05;20.20;;;20.20;71.60;;;;;;4974478;28;20023;-17
2022/05/12 06:21:12;;;;;;;27.15;18.73;;;20.30;70.80;;;;;;4973997;28;20035;-17
2022/05/12 06:23:39;;;;;;;32.10;20.92;;;20.40;70.30;;;;;;4973698;28;20035;-14
2022/05/12 06:26:15;;;;;;;35.15;23.00;;;20.70;69.90;;;;;;4974512;28;20506;-16
2022/05/12 06:28:46;;;;;;;32.38;21.20;;;20.90;69.40;;;;;;4977344;28;20031;-16
2022/05/12 06:31:24;;;;;;;34.78;22.83;;;20.90;68.70;;;;;;4977204;28;20031;-15
2022/05/12 06:33:52;;;;;;;30.45;20.92;;;21.10;68.90;;;;;;4977100;28;20035;-15
2022/05/12 06:36:17;;;;;;;29.95;20.70;;;21.10;67.80;;;;;;4976473;28;20062;-16
2022/05/12 06:38:43;;;;;;;32.33;20.98;;;21.20;68.30;;;;;;4977680;28;20033;-15
2022/05/12 06:41:10;;;;;;;28.88;17.15;;;21.40;67.80;;;;;;4977221;28;20027;-15
2022/05/12 06:43:36;;;;;;;25.13;18.10;;;21.70;67.70;;;;;;4977220;28;20054;-15
2022/05/12 06:46:03;;;;;;;32.85;20.83;;;21.90;66.90;;;;;;4976983;28;20029;-14
2022/05/12 06:48:30;;;;;;;27.80;19.65;;;22.20;66.60;;;;;;4976718;28;20089;-15
2022/05/12 06:50:56;;;;;;;32.42;22.20;;;22.50;65.20;;;;;;4976722;28;20532;-13
2022/05/12 06:53:21;;;;;;;24.23;15.45;;;22.70;65.40;;;;;;4976545;28;20038;-16
2022/05/12 06:55:47;;;;;;;24.65;17.42;;;22.90;65.20;;;;;;4977144;28;20070;-15
2022/05/12 06:58:17;;;;;;;31.88;21.50;;;23.20;64.80;;;;;;4976725;28;20510;-15
2022/05/12 07:00:45;;;;;;;26.13;18.33;;;23.40;62.10;;;;;;4976616;28;20110;-14
2022/05/12 07:03:13;;;;;;;28.10;19.98;;;23.40;62.50;;;;;;4976543;28;20038;-15
2022/05/12 07:05:41;;;;;;;33.45;21.67;;;23.60;62.10;;;;;;4976805;28;20031;-16
2022/05/12 07:08:09;;;;;;;21.73;16.33;;;23.90;60.70;;;;;;4976332;28;20030;-15
2022/05/12 07:10:36;;;;;;;26.50;18.27;;;24.30;60.70;;;;;;4975190;28;20018;-14
2022/05/12 07:13:02;;;;;;;28.52;17.42;;;24.40;58.60;;;;;;4976336;28;20038;-14
2022/05/12 07:15:29;;;;;;;29.58;19.33;;;24.50;58.70;;;;;;4976226;28;20033;-14
2022/05/12 07:17:56;;;;;;;24.08;17.42;;;24.60;58.70;;;;;;4976481;28;20561;-15
2022/05/12 07:28:38;;;;;;;23.33;15.07;;;25.50;54.20;;;;;;4975995;28;20034;-15
2022/05/12 07:31:06;;;;;;;25.60;16.08;;;25.80;55.00;;;;;;4976007;28;20029;-14
2022/05/12 07:33:43;;;;;;;23.48;16.08;;;25.90;54.20;;;;;;4975945;28;20043;-14
2022/05/12 07:36:20;;;;;;;22.83;16.65;;;25.90;53.20;;;;;;4974678;28;20066;-16
2022/05/12 07:38:47;;;;;;;16.25;12.43;;;25.90;53.80;;;;;;4976184;28;20023;-14
2022/05/12 07:41:14;;;;;;;18.75;11.70;;;25.90;54.20;;;;;;4975852;28;20469;-16
2022/05/12 07:43:41;;;;;;;16.30;11.60;;;25.90;54.30;;;;;;4975825;28;20368;-14
2022/05/12 07:46:08;;;;;;;14.60;11.10;;;26.20;54.30;;;;;;4975880;28;20027;-15
2022/05/12 07:48:35;;;;;;;24.63;16.15;;;26.50;53.40;;;;;;4975728;28;20026;-15
2022/05/12 07:51:02;;;;;;;22.00;15.57;;;26.80;51.90;;;;;;4976048;28;20041;-14
2022/05/12 07:53:28;;;;;;;17.42;13.25;;;26.90;51.40;;;;;;4975756;28;20035;-14
2022/05/12 07:55:54;;;;;;;24.67;16.45;;;27.00;51.60;;;;;;4975543;28;20035;-15
2022/05/12 07:58:20;;;;;;;19.55;14.20;;;27.20;50.60;;;;;;4975343;28;20039;-14
2022/05/12 08:00:47;;;;;;;17.73;11.70;;;27.40;50.90;;;;;;4975803;28;20030;-14
2022/05/12 08:03:13;;;;;;;20.15;13.32;;;27.70;50.70;;;;;;4974272;28;20031;-14
2022/05/12 08:05:40;;;;;;;18.98;13.25;;;27.70;50.10;;;;;;4975393;28;20042;-14
2022/05/12 08:08:08;;;;;;;23.77;15.27;;;28.00;49.70;;;;;;4975298;28;20085;-14
2022/05/12 08:10:34;;;;;;;17.40;12.27;;;28.20;48.30;;;;;;4975099;28;20090;-14
2022/05/12 08:13:01;;;;;;;15.88;11.70;;;28.50;47.30;;;;;;4975273;28;20027;-14
2022/05/12 08:15:27;;;;;;;17.33;10.68;;;28.80;46.70;;;;;;4975181;28;20035;-14
2022/05/12 08:17:54;;;;;;;16.42;11.90;;;29.00;46.70;;;;;;4975214;28;20541;-15
2022/05/12 08:20:20;;;;;;;15.52;10.45;;;29.40;45.90;;;;;;4975239;28;20125;-14
2022/05/12 08:22:47;;;;;;;14.70;11.13;;;29.60;45.20;;;;;;4974951;28;20114;-14
2022/05/12 08:25:14;;;;;;;19.73;13.85;;;29.80;44.60;;;;;;4975361;28;20015;-14
2022/05/12 08:27:41;;;;;;;15.85;10.85;;;29.90;44.80;;;;;;4973826;28;20502;-14
2022/05/12 08:30:11;;;;;;;22.08;12.50;;;30.00;45.00;;;;;;4975095;28;20030;-14
2022/05/12 08:32:37;;;;;;;18.70;12.20;;;30.10;44.30;;;;;;4975107;28;20106;-16
2022/05/12 08:35:04;;;;;;;25.55;14.68;;;30.30;43.40;;;;;;4974629;28;20105;-14
2022/05/12 08:37:31;;;;;;;19.25;11.75;;;30.20;43.70;;;;;;4975133;28;20479;-14
2022/05/12 08:39:57;;;;;;;14.38;9.85;;;30.10;44.10;;;;;;4974984;28;20502;-15
2022/05/12 08:42:29;;;;;;;17.55;11.65;;;30.10;44.50;;;;;;4974665;28;20026;-16
2022/05/12 08:44:56;;;;;;;18.17;10.98;;;30.20;43.80;;;;;;4975267;28;20063;-15
2022/05/12 08:47:35;;;;;;;17.92;12.18;;;30.40;44.00;;;;;;4975039;28;20027;-14
2022/05/12 08:50:03;;;;;;;23.13;14.77;;;30.40;43.80;;;;;;4974491;28;20026;-13
2022/05/12 08:52:52;;;;;;;21.92;15.13;;;30.60;43.20;;;;;;4974255;28;20034;-14
2022/05/12 08:55:25;;;;;;;21.85;14.40;;;30.60;41.30;;;;;;4974863;28;20031;-13
2022/05/12 08:58:30;;;;;;;21.42;13.00;;;30.40;42.70;;;;;;4974628;28;20574;-14
2022/05/12 09:01:02;;;;;;;15.60;10.45;;;30.40;42.60;;;;;;4958248;28;20050;-14
2022/05/12 09:03:55;;;;;;;14.65;10.48;;;30.60;42.00;;;;;;4974484;28;20376;-13
2022/05/12 09:06:29;;;;;;;16.75;11.55;;;30.80;42.00;;;;;;4974144;28;20035;-14
2022/05/12 09:09:10;;;;;;;19.15;12.70;;;31.10;40.70;;;;;;4974489;28;20456;-13
2022/05/12 09:11:51;;;;;;;15.43;11.70;;;31.40;42.70;;;;;;4974751;28;20395;-14
2022/05/12 09:14:25;;;;;;;16.90;12.15;;;31.40;41.10;;;;;;5057144;23;20050;-14
2022/05/12 09:16:52;;;;;;;18.88;12.63;;;31.50;41.40;;;;;;4974666;28;20031;-14
2022/05/12 09:19:19;;;;;;;20.30;12.55;;;31.50;41.60;;;;;;4974593;28;20383;-14
2022/05/12 09:21:46;;;;;;;16.50;10.05;;;31.70;41.30;;;;;;4974345;28;20054;-13
2022/05/12 09:24:13;;;;;;;14.43;9.73;;;31.80;41.20;;;;;;5059868;23;20054;-14
2022/05/12 09:26:51;;;;;;;24.25;13.30;;;32.00;41.20;;;;;;4974301;28;20031;-14
2022/05/12 09:29:31;;;;;;;22.80;13.48;;;32.20;40.60;;;;;;5057401;23;20194;-14
2022/05/12 09:32:16;;;;;;;19.88;11.80;;;31.90;40.00;;;;;;4974319;28;20101;-14
2022/05/12 09:34:46;;;;;;;23.13;13.05;;;31.80;40.80;;;;;;4974504;28;20035;-14
2022/05/12 09:37:18;;;;;;;15.77;9.98;;;31.60;40.90;;;;;;4974500;28;20030;-14
2022/05/12 09:39:51;;;;;;;21.67;12.70;;;31.60;41.30;;;;;;4974502;28;20041;-14
2022/05/12 09:42:29;;;;;;;24.67;14.95;;;31.60;41.40;;;;;;4973945;28;20030;-14
2022/05/12 09:45:15;;;;;;;16.98;12.45;;;31.60;41.60;;;;;;4974049;28;20475;-14
2022/05/12 09:47:42;;;;;;;15.43;11.20;;;31.90;40.90;;;;;;4972942;28;20033;-13
2022/05/12 09:50:20;;;;;;;14.98;10.05;;;32.00;40.30;;;;;;4974027;28;20490;-14
2022/05/12 09:53:00;;;;;;;14.80;9.98;;;32.30;40.20;;;;;;4974120;28;20027;-14
2022/05/12 09:55:28;;;;;;;15.30;11.77;;;32.50;39.70;;;;;;4974000;28;20367;-14
2022/05/12 09:57:57;;;;;;;17.85;11.57;;;32.70;38.70;;;;;;4973831;28;20146;-14
2022/05/12 10:00:39;;;;;;;12.95;9.55;;;33.00;37.80;;;;;;4974080;28;20023;-14
2022/05/12 10:09:10;;;;;;;15.75;10.43;;;33.40;38.00;;;;;;4977932;28;20038;-14
2022/05/12 10:11:53;;;;;;;18.33;10.48;;;33.60;37.40;;;;;;4977909;28;20023;-13
2022/05/12 10:14:50;;;;;;;15.75;9.90;;;33.80;36.40;;;;;;5021917;23;20426;-15
2022/05/12 10:17:19;;;;;;;12.02;8.88;;;33.90;36.00;;;;;;5027090;23;20061;-13
2022/05/12 10:19:47;;;;;;;11.93;8.48;;;33.90;36.70;;;;;;5027684;23;20050;-14
2022/05/12 10:22:18;;;;;;;13.32;8.48;;;34.00;36.70;;;;;;4958341;28;20470;-14
2022/05/12 10:24:59;;;;;;;14.10;10.18;;;34.30;36.80;;;;;;4958564;28;20027;-15
2022/05/12 10:27:31;;;;;;;20.83;11.65;;;34.60;35.40;;;;;;5143351;23;20063;-15
2022/05/12 10:30:18;;;;;;;13.82;9.25;;;34.70;35.70;;;;;;4977223;28;20034;-15
2022/05/12 10:33:21;;;;;;;14.35;9.40;;;34.90;35.30;;;;;;4977185;28;20023;-14
2022/05/12 10:36:07;;;;;;;13.90;8.98;;;34.90;35.40;;;;;;4977329;28;20122;-14
2022/05/12 10:39:09;;;;;;;13.10;8.43;;;35.20;34.60;;;;;;4976959;28;20033;-14
2022/05/12 10:41:43;;;;;;;13.02;8.35;;;35.60;34.90;;;;;;5037825;23;20134;-16
2022/05/12 10:44:38;;;;;;;12.95;8.65;;;35.90;34.30;;;;;;4957893;28;20086;-15
2022/05/12 10:47:51;;;;;;;13.80;8.93;;;36.10;33.30;;;;;;5053101;23;20066;-14
2022/05/12 10:50:27;;;;;;;13.15;8.85;;;36.20;32.40;;;;;;4972995;28;20035;-13
2022/05/12 10:53:26;;;;;;;10.73;7.88;;;36.20;32.70;;;;;;5059358;23;20062;-14
2022/05/12 10:56:23;;;;;;;16.35;9.90;;;36.30;32.50;;;;;;4975596;28;20486;-14
2022/05/12 10:59:19;;;;;;;15.23;9.82;;;36.60;32.20;;;;;;4977208;28;20027;-13
2022/05/12 11:01:53;;;;;;;12.50;8.02;;;36.60;31.60;;;;;;4976964;28;20023;-14
2022/05/12 11:04:21;;;;;;;14.63;10.63;;;36.20;33.40;;;;;;4976316;28;20031;-13
2022/05/12 11:06:54;;;;;;;15.38;10.25;;;35.80;34.00;;;;;;4976394;28;20125;-14
2022/05/12 11:09:31;;;;;;;12.40;8.95;;;35.40;35.00;;;;;;4976619;28;20027;-14
2022/05/12 11:12:05;;;;;;;14.82;9.63;;;35.20;35.70;;;;;;4976264;28;20039;-13
2022/05/12 11:14:44;;;;;;;16.00;8.50;;;35.40;34.50;;;;;;4976567;28;20050;-15
2022/05/12 11:17:21;;;;;;;14.63;8.98;;;35.90;33.90;;;;;;4976420;28;20027;-14
2022/05/12 11:20:18;;;;;;;14.52;8.38;;;36.40;32.80;;;;;;4976687;28;20057;-14
2022/05/12 11:22:58;;;;;;;12.45;9.02;;;36.80;32.10;;;;;;4969119;28;20042;-13
2022/05/12 11:25:49;;;;;;;13.82;9.57;;;36.90;32.00;;;;;;5061393;23;20050;-13
2022/05/12 11:31:33;;;;;;;13.77;8.70;;;36.80;32.30;;;;;;4976452;28;20085;-14
2022/05/12 11:36:47;;;;;;;10.30;7.35;;;37.20;32.80;;;;;;5036402;23;20144;-14
2022/05/12 11:39:24;;;;;;;14.52;10.52;;;37.60;32.80;;;;;;4956689;29;20382;-14
2022/05/12 11:42:11;;;;;;;13.57;7.93;;;38.10;31.80;;;;;;5058705;23;20086;-14
2022/05/12 11:45:02;;;;;;;15.10;10.02;;;38.30;31.50;;;;;;4975694;28;20398;-14
2022/05/12 11:47:46;;;;;;;13.43;9.40;;;38.50;30.80;;;;;;4976203;28;20027;-14
2022/05/12 11:50:30;;;;;;;11.15;8.30;;;38.70;30.40;;;;;;4976142;28;20034;-14
2022/05/12 11:53:13;;;;;;;10.23;8.55;;;38.80;30.40;;;;;;4976185;28;20024;-14
2022/05/12 11:55:58;;;;;;;10.77;7.72;;;38.90;29.60;;;;;;4975852;28;20027;-13
2022/05/12 11:59:10;;;;;;;10.63;8.60;;;39.20;30.30;;;;;;4975664;28;20030;-14
2022/05/12 12:01:39;;;;;;;12.25;8.02;;;39.40;28.70;;;;;;4975365;28;20039;-13
2022/05/12 12:04:12;;;;;;;11.82;8.35;;;39.40;29.80;;;;;;4974191;28;20070;-14
2022/05/12 12:06:46;;;;;;;13.98;8.43;;;39.40;29.80;;;;;;4975248;28;20546;-13
2022/05/12 12:09:27;;;;;;;12.30;8.18;;;39.30;29.30;;;;;;4975443;28;20482;-13
2022/05/12 12:11:54;;;;;;;13.45;7.65;;;39.40;29.70;;;;;;4975196;28;20038;-14
2022/05/12 12:14:50;;;;;;;10.77;8.57;;;39.50;29.50;;;;;;4975073;28;20023;-14
2022/05/12 12:17:25;;;;;;;12.45;7.68;;;39.70;29.60;;;;;;4975600;28;20026;-13
2022/05/12 12:19:54;;;;;;;11.32;8.00;;;40.00;29.40;;;;;;4975501;28;20035;-13
2022/05/12 12:22:46;;;;;;;14.57;9.55;;;40.20;29.30;;;;;;4975094;28;20031;-13
2022/05/12 12:25:19;;;;;;;;;;;39.90;29.00;;;;;;4975046;28;20062;-14
2022/05/12 12:27:55;;;;;;;17.05;9.70;;;38.90;29.40;;;;;;4975128;28;19917;-13
2022/05/12 12:31:08;;;;;;;18.88;10.25;;;38.00;30.80;;;;;;4974996;28;20030;-16
2022/05/12 12:33:58;;;;;;;15.02;9.50;;;37.20;31.10;;;;;;4974957;28;20035;-14
2022/05/12 12:36:30;;;;;;;14.05;8.02;;;36.60;32.90;;;;;;4974716;28;20106;-16
2022/05/12 12:38:56;;;;;;;12.40;7.28;;;36.40;33.40;;;;;;4974910;28;20122;-13
2022/05/12 12:41:30;;;;;;;12.98;8.10;;;36.60;32.90;;;;;;5060501;23;20145;-14
2022/05/12 12:43:59;;;;;;;12.30;7.55;;;37.20;31.60;;;;;;4975012;28;20027;-14
2022/05/12 12:46:44;;;;;;;13.30;8.25;;;37.60;31.00;;;;;;4974781;28;20089;-14
2022/05/12 12:49:47;;;;;;;12.20;8.57;;;38.00;30.60;;;;;;4975145;28;20106;-14
2022/05/12 12:52:16;;;;;;;10.88;7.93;;;38.50;29.90;;;;;;4974851;28;20484;-14
2022/05/12 12:57:48;;;;;;;13.85;9.07;;;39.00;29.30;;;;;;4974966;28;20393;-14
2022/05/12 13:00:28;;;;;;;11.55;7.38;;;39.20;29.30;;;;;;4974556;28;20031;-19
2022/05/12 13:02:58;;;;;;;11.38;8.20;;;38.70;29.90;;;;;;4974850;28;20042;-13
2022/05/12 13:05:25;;;;;;;10.65;7.47;;;38.40;30.20;;;;;;4974449;28;20046;-14
2022/05/12 13:08:02;;;;;;;10.70;8.07;;;38.30;30.80;;;;;;4974511;28;20051;-14
2022/05/12 13:10:32;;;;;;;12.02;9.15;;;38.30;31.70;;;;;;4974145;28;20478;-13
2022/05/12 13:13:04;;;;;;;11.45;7.03;;;38.30;31.10;;;;;;4974466;28;20426;-16
2022/05/12 13:15:34;;;;;;;9.65;7.57;;;38.30;30.90;;;;;;4974772;28;20027;-14
2022/05/12 13:18:15;;;;;;;11.77;7.72;;;38.40;30.90;;;;;;4974620;28;20023;-13